TimeEDT,TemperatureF,Dew PointF,Humidity,Sea Level PressureIn,VisibilityMPH,Wind Direction,Wind SpeedMPH,Gust SpeedMPH,PrecipitationIn,Events,Conditions,WindDirDegrees,DateUTC
12:15 AM,46.4,39.2,76,29.72,10.0,WNW,20.7,26.5,N/A,,Overcast,290,2013-05-26 04:15:00
12:35 AM,44.6,39.2,81,29.72,10.0,WNW,21.9,28.8,N/A,,Overcast,300,2013-05-26 04:35:00
12:55 AM,44.6,39.2,81,29.72,10.0,WNW,18.4,28.8,N/A,,Overcast,290,2013-05-26 04:55:00
1:15 AM,44.6,39.2,81,29.72,10.0,WNW,20.7,27.6,N/A,,Overcast,290,2013-05-26 05:15:00
1:35 AM,44.6,39.2,81,29.72,10.0,WNW,20.7,27.6,N/A,,Overcast,290,2013-05-26 05:35:00
1:55 AM,44.6,39.2,81,29.72,10.0,West,17.3,26.5,N/A,,Overcast,280,2013-05-26 05:55:00
2:15 AM,44.6,39.2,81,29.72,10.0,West,15.0,23.0,N/A,,Overcast,280,2013-05-26 06:15:00
2:35 AM,44.6,39.2,81,29.72,10.0,West,16.1,24.2,N/A,,Overcast,270,2013-05-26 06:35:00
2:55 AM,42.8,39.2,87,29.71,10.0,West,17.3,23.0,N/A,,Overcast,280,2013-05-26 06:55:00
3:15 AM,42.8,37.4,81,29.71,10.0,West,17.3,23.0,N/A,,Overcast,270,2013-05-26 07:15:00
3:35 AM,42.8,37.4,81,29.71,10.0,West,15.0,23.0,N/A,,Overcast,270,2013-05-26 07:35:00
3:55 AM,42.8,37.4,81,29.72,10.0,West,18.4,24.2,N/A,,Overcast,270,2013-05-26 07:55:00
4:15 AM,42.8,37.4,81,29.72,10.0,West,15.0,23.0,N/A,,Overcast,280,2013-05-26 08:15:00
4:35 AM,42.8,37.4,81,29.73,10.0,West,16.1,24.2,N/A,,Overcast,280,2013-05-26 08:35:00
4:55 AM,42.8,37.4,81,29.73,10.0,West,16.1,24.2,N/A,,Overcast,270,2013-05-26 08:55:00
5:15 AM,42.8,37.4,81,29.73,10.0,West,16.1,23.0,N/A,,Overcast,280,2013-05-26 09:15:00
5:35 AM,42.8,37.4,81,29.73,10.0,West,18.4,23.0,N/A,,Overcast,280,2013-05-26 09:35:00
5:55 AM,42.8,37.4,81,29.74,10.0,West,15.0,24.2,N/A,,Overcast,280,2013-05-26 09:55:00
6:15 AM,42.8,37.4,81,29.74,10.0,West,17.3,23.0,N/A,,Overcast,280,2013-05-26 10:15:00
6:35 AM,42.8,37.4,81,29.74,10.0,West,17.3,24.2,N/A,,Overcast,280,2013-05-26 10:35:00
6:55 AM,42.8,39.2,87,29.75,10.0,WNW,20.7,24.2,N/A,,Overcast,290,2013-05-26 10:55:00
7:15 AM,42.8,39.2,87,29.76,10.0,WNW,16.1,25.3,N/A,,Overcast,290,2013-05-26 11:15:00
7:35 AM,42.8,39.2,87,29.76,10.0,West,20.7,28.8,0.01,,Overcast,280,2013-05-26 11:35:00
7:55 AM,42.8,41.0,93,29.77,3.0,West,17.3,26.5,0.02,,Overcast,280,2013-05-26 11:55:00
8:15 AM,42.8,41.0,93,29.77,4.0,West,17.3,27.6,N/A,,Overcast,280,2013-05-26 12:15:00
8:35 AM,42.8,42.8,100,29.78,3.0,WNW,21.9,-,N/A,,Overcast,290,2013-05-26 12:35:00
8:55 AM,44.6,42.8,93,29.78,5.0,WNW,23.0,27.6,N/A,,Overcast,290,2013-05-26 12:55:00
9:15 AM,44.6,41.0,87,29.79,9.0,WNW,23.0,27.6,N/A,,Overcast,300,2013-05-26 13:15:00
9:35 AM,44.6,41.0,87,29.80,10.0,WNW,17.3,27.6,N/A,,Overcast,290,2013-05-26 13:35:00
9:55 AM,44.6,41.0,87,29.80,10.0,WNW,21.9,31.1,N/A,,Overcast,290,2013-05-26 13:55:00
10:15 AM,46.4,42.8,87,29.81,10.0,WNW,20.7,28.8,N/A,,Overcast,290,2013-05-26 14:15:00
10:35 AM,46.4,41.0,81,29.82,10.0,WNW,20.7,26.5,N/A,,Overcast,290,2013-05-26 14:35:00
10:55 AM,48.2,42.8,82,29.82,10.0,WNW,20.7,26.5,N/A,,Overcast,290,2013-05-26 14:55:00
11:15 AM,48.2,42.8,82,29.83,10.0,WNW,20.7,26.5,N/A,,Overcast,290,2013-05-26 15:15:00
11:35 AM,48.2,42.8,82,29.84,10.0,WNW,15.0,23.0,N/A,,Overcast,290,2013-05-26 15:35:00
11:55 AM,50.0,42.8,76,29.84,10.0,WNW,13.8,19.6,N/A,,Overcast,290,2013-05-26 15:55:00
12:15 PM,51.8,42.8,71,29.86,10.0,West,13.8,21.9,N/A,,Overcast,270,2013-05-26 16:15:00
12:35 PM,53.6,42.8,67,29.85,10.0,West,15.0,-,N/A,,Overcast,280,2013-05-26 16:35:00
12:55 PM,53.6,41.0,62,29.86,10.0,WNW,16.1,-,N/A,,Overcast,290,2013-05-26 16:55:00
1:15 PM,53.6,42.8,67,29.86,10.0,WNW,12.7,-,N/A,,Overcast,290,2013-05-26 17:15:00
1:35 PM,55.4,44.6,67,29.86,10.0,West,12.7,-,N/A,,Overcast,280,2013-05-26 17:35:00
1:55 PM,55.4,44.6,67,29.86,10.0,West,11.5,-,N/A,,Overcast,280,2013-05-26 17:55:00
2:15 PM,55.4,44.6,67,29.87,10.0,West,13.8,-,N/A,,Overcast,270,2013-05-26 18:15:00
2:35 PM,57.2,42.8,59,29.87,10.0,WNW,15.0,19.6,N/A,,Overcast,290,2013-05-26 18:35:00
2:55 PM,55.4,42.8,63,29.88,10.0,WNW,15.0,23.0,N/A,,Overcast,290,2013-05-26 18:55:00
3:15 PM,55.4,42.8,63,29.88,10.0,WNW,19.6,-,N/A,,Overcast,300,2013-05-26 19:15:00
3:35 PM,55.4,42.8,63,29.89,10.0,WNW,16.1,23.0,N/A,,Overcast,300,2013-05-26 19:35:00
3:55 PM,57.2,42.8,59,29.90,10.0,WNW,15.0,20.7,N/A,,Scattered Clouds,290,2013-05-26 19:55:00
4:15 PM,55.4,42.8,63,29.91,10.0,NW,15.0,-,N/A,,Scattered Clouds,310,2013-05-26 20:15:00
4:35 PM,55.4,42.8,63,29.91,10.0,WNW,12.7,-,N/A,,Overcast,300,2013-05-26 20:35:00
4:55 PM,53.6,41.0,62,29.93,10.0,NW,17.3,24.2,N/A,,Overcast,310,2013-05-26 20:55:00
5:15 PM,55.4,42.8,63,29.93,10.0,NW,13.8,21.9,N/A,,Overcast,310,2013-05-26 21:15:00
5:35 PM,55.4,42.8,63,29.94,10.0,NW,13.8,19.6,N/A,,Mostly Cloudy,310,2013-05-26 21:35:00
5:55 PM,53.6,42.8,67,29.95,10.0,NW,12.7,19.6,N/A,,Scattered Clouds,310,2013-05-26 21:55:00
6:15 PM,53.6,42.8,67,29.96,10.0,NW,11.5,-,N/A,,Mostly Cloudy,310,2013-05-26 22:15:00
6:35 PM,53.6,42.8,67,29.97,10.0,NW,13.8,17.3,N/A,,Overcast,310,2013-05-26 22:35:00
6:55 PM,53.6,42.8,67,29.97,10.0,NW,15.0,-,N/A,,Mostly Cloudy,310,2013-05-26 22:55:00
7:15 PM,53.6,41.0,62,29.98,10.0,WNW,13.8,17.3,N/A,,Clear,300,2013-05-26 23:15:00
7:35 PM,53.6,41.0,62,30.00,10.0,NW,15.0,-,N/A,,Mostly Cloudy,310,2013-05-26 23:35:00
7:55 PM,53.6,39.2,58,30.00,10.0,WNW,16.1,-,N/A,,Overcast,300,2013-05-26 23:55:00
8:15 PM,53.6,41.0,62,30.01,10.0,WNW,15.0,24.2,N/A,,Mostly Cloudy,300,2013-05-27 00:15:00
8:35 PM,51.8,41.0,67,30.02,10.0,WNW,16.1,20.7,N/A,,Partly Cloudy,300,2013-05-27 00:35:00
9:15 PM,51.8,41.0,67,30.04,10.0,NW,18.4,21.9,N/A,,Clear,310,2013-05-27 01:15:00
9:35 PM,51.8,39.2,62,30.05,10.0,WNW,15.0,25.3,N/A,,Clear,300,2013-05-27 01:35:00
9:55 PM,51.8,39.2,62,30.05,10.0,WNW,16.1,25.3,N/A,,Clear,300,2013-05-27 01:55:00
10:15 PM,51.8,39.2,62,30.05,10.0,NW,17.3,24.2,N/A,,Clear,310,2013-05-27 02:15:00
10:35 PM,51.8,39.2,62,30.06,10.0,NW,15.0,24.2,N/A,,Clear,310,2013-05-27 02:35:00
10:55 PM,51.8,41.0,67,30.06,10.0,NW,15.0,23.0,N/A,,Clear,310,2013-05-27 02:55:00
11:15 PM,50.0,39.2,66,30.07,10.0,WNW,15.0,20.7,N/A,,Clear,300,2013-05-27 03:15:00
11:35 PM,50.0,39.2,66,30.07,10.0,WNW,15.0,20.7,N/A,,Clear,300,2013-05-27 03:35:00
11:55 PM,50.0,39.2,66,30.08,10.0,WNW,16.1,23.0,N/A,,Clear,300,2013-05-27 03:55:00